Time;durP1;ratioP1;P1;durP2;ratioP2;P2;SDS_P1;SDS_P2;PMS_P1;PMS_P2;Temp;Humidity;BMP_temperature;BMP_pressure;BME280_temperature;BME280_humidity;BME280_pressure;Samples;Min_cycle;Max_cycle;Signal;HPM_P1;HPM_P2
2023/10/04 00:00:19;;;;;;;0.50;0.50;;;15.50;68.90;;;;;;5175870;27;20075;-69
2023/10/04 00:02:54;;;;;;;0.57;0.57;;;15.50;69.10;;;;;;5175508;27;20375;-69
2023/10/04 00:05:21;;;;;;;0.50;0.50;;;15.40;69.30;;;;;;5174579;27;20018;-69
2023/10/04 00:07:50;;;;;;;0.73;0.73;;;15.40;69.20;;;;;;5174201;27;20034;-69
2023/10/04 00:10:17;;;;;;;0.98;0.98;;;15.40;69.40;;;;;;5175478;27;20099;-68
2023/10/04 00:12:44;;;;;;;0.50;0.50;;;15.40;69.30;;;;;;5175315;27;20030;-71
2023/10/04 00:15:12;;;;;;;0.50;0.50;;;15.40;69.20;;;;;;5175817;27;20046;-69
2023/10/04 00:17:41;;;;;;;0.75;0.75;;;15.40;69.20;;;;;;5174263;27;20168;-69
2023/10/04 00:20:10;;;;;;;0.57;0.57;;;15.40;69.40;;;;;;5175397;27;20079;-69
2023/10/04 00:22:36;;;;;;;0.75;0.75;;;15.40;69.40;;;;;;5174953;27;20109;-69
2023/10/04 00:25:04;;;;;;;0.95;0.93;;;15.40;69.50;;;;;;5175547;27;20621;-68
2023/10/04 00:27:30;;;;;;;0.50;0.50;;;15.30;69.50;;;;;;5175059;27;20034;-69
2023/10/04 00:29:56;;;;;;;0.50;0.50;;;15.40;69.60;;;;;;5175219;27;20019;-67
2023/10/04 00:32:22;;;;;;;0.50;0.50;;;15.40;69.80;;;;;;5174678;27;20042;-68
2023/10/04 00:34:47;;;;;;;0.50;0.50;;;15.40;69.70;;;;;;5175122;27;20344;-68
2023/10/04 00:37:15;;;;;;;0.60;0.60;;;15.40;69.70;;;;;;5165417;27;20045;-67
2023/10/04 00:39:41;;;;;;;0.50;0.50;;;15.50;69.60;;;;;;5154504;27;20054;-68
2023/10/04 00:42:06;;;;;;;0.85;0.85;;;15.40;69.60;;;;;;5162324;27;20462;-68
2023/10/04 00:44:35;;;;;;;0.80;0.80;;;15.50;69.60;;;;;;5154116;27;20433;-68
2023/10/04 00:47:07;;;;;;;0.55;0.55;;;15.50;69.70;;;;;;5166792;27;20045;-67
2023/10/04 00:49:34;;;;;;;2.83;1.25;;;15.50;69.80;;;;;;5174880;27;20033;-67
2023/10/04 00:52:02;;;;;;;1.88;1.70;;;15.50;69.60;;;;;;5166755;27;20050;-67
2023/10/04 00:54:29;;;;;;;0.40;0.40;;;15.50;69.60;;;;;;5153838;27;20041;-69
2023/10/04 00:56:55;;;;;;;0.77;0.77;;;15.50;69.70;;;;;;5160384;27;20018;-68
2023/10/04 00:59:21;;;;;;;0.65;0.65;;;15.50;69.70;;;;;;5178969;27;20034;-72
2023/10/04 01:01:48;;;;;;;3.85;1.88;;;15.50;69.70;;;;;;5176332;27;20022;-68
2023/10/04 01:04:14;;;;;;;0.40;0.40;;;15.50;69.60;;;;;;5174280;27;20045;-68
2023/10/04 01:06:40;;;;;;;0.50;0.50;;;15.50;69.60;;;;;;5174373;27;20022;-68
2023/10/04 01:09:06;;;;;;;0.63;0.47;;;15.50;69.60;;;;;;5174600;27;20493;-67
2023/10/04 01:11:35;;;;;;;0.50;0.50;;;15.50;69.60;;;;;;5174177;27;20049;-68
2023/10/04 01:14:23;;;;;;;0.50;0.50;;;15.50;69.70;;;;;;5174415;27;20486;-68
2023/10/04 01:16:51;;;;;;;0.68;0.60;;;15.50;69.70;;;;;;5174243;27;20026;-68
2023/10/04 01:19:17;;;;;;;0.73;0.73;;;15.50;69.70;;;;;;5174568;27;20038;-68
2023/10/04 01:21:43;;;;;;;0.70;0.70;;;15.60;69.80;;;;;;5174170;27;20044;-68
2023/10/04 01:24:09;;;;;;;0.50;0.50;;;15.50;70.00;;;;;;5174357;27;20032;-68
2023/10/04 01:26:36;;;;;;;0.40;0.40;;;15.60;69.90;;;;;;5173920;27;20022;-68
2023/10/04 01:29:08;;;;;;;0.47;0.47;;;15.60;69.90;;;;;;5174449;27;20466;-68
2023/10/04 01:31:34;;;;;;;0.90;0.90;;;15.60;69.70;;;;;;5173920;27;20075;-68
2023/10/04 01:33:59;;;;;;;0.45;0.45;;;15.60;69.60;;;;;;5174232;27;20030;-68
2023/10/04 01:36:26;;;;;;;0.50;0.50;;;15.60;69.60;;;;;;5173756;27;20022;-68
2023/10/04 01:38:53;;;;;;;0.40;0.40;;;15.60;69.60;;;;;;5153698;27;20031;-68
2023/10/04 01:41:19;;;;;;;1.10;0.85;;;15.60;69.60;;;;;;5162145;27;20394;-68
2023/10/04 01:43:45;;;;;;;0.40;0.40;;;15.60;69.60;;;;;;5153192;27;20421;-68
2023/10/04 01:46:12;;;;;;;0.35;0.35;;;15.60;69.40;;;;;;5152457;27;20031;-68
2023/10/04 01:48:37;;;;;;;0.73;0.52;;;15.60;69.50;;;;;;5153220;27;20034;-68
2023/10/04 01:51:04;;;;;;;0.57;0.57;;;15.50;69.50;;;;;;5167467;27;20398;-68
2023/10/04 01:53:30;;;;;;;0.50;0.50;;;15.50;69.40;;;;;;5173551;27;20105;-68
2023/10/04 01:55:56;;;;;;;0.60;0.60;;;15.50;69.20;;;;;;5173806;27;20097;-70
2023/10/04 01:58:23;;;;;;;1.75;0.73;;;15.50;69.30;;;;;;5173993;27;20037;-68
2023/10/04 02:00:52;;;;;;;1.10;0.95;;;15.50;69.50;;;;;;5173709;27;20026;-68
2023/10/04 02:03:18;;;;;;;0.40;0.40;;;15.50;69.50;;;;;;5173480;27;20447;-67
2023/10/04 02:05:45;;;;;;;0.50;0.50;;;15.50;69.50;;;;;;5173631;27;20022;-67
2023/10/04 02:08:11;;;;;;;0.75;0.75;;;15.50;69.50;;;;;;5173780;27;20029;-68
2023/10/04 02:10:37;;;;;;;0.57;0.57;;;15.50;69.60;;;;;;5173541;27;20497;-68
2023/10/04 02:13:06;;;;;;;0.40;0.40;;;15.50;69.50;;;;;;5173074;27;20019;-68
2023/10/04 02:15:34;;;;;;;0.40;0.40;;;15.40;69.30;;;;;;5173391;27;20021;-68
2023/10/04 02:17:59;;;;;;;0.75;0.75;;;15.40;69.50;;;;;;5173086;27;20019;-68
2023/10/04 02:20:28;;;;;;;0.50;0.50;;;15.50;69.60;;;;;;5173726;27;20053;-68
2023/10/04 02:22:57;;;;;;;0.52;0.52;;;15.40;69.70;;;;;;5176984;27;20543;-68
2023/10/04 02:25:23;;;;;;;0.77;0.77;;;15.50;69.80;;;;;;5177582;27;20029;-67
2023/10/04 02:27:52;;;;;;;0.55;0.55;;;15.50;69.80;;;;;;5162999;27;20030;-67
2023/10/04 02:30:23;;;;;;;0.50;0.50;;;15.50;69.70;;;;;;5156622;27;20117;-67
2023/10/04 02:32:50;;;;;;;0.50;0.50;;;15.50;69.60;;;;;;5171325;27;20026;-68
2023/10/04 02:35:33;;;;;;;0.40;0.40;;;15.50;69.70;;;;;;5177141;27;20270;-68
2023/10/04 02:37:59;;;;;;;1.58;1.15;;;15.50;69.70;;;;;;5164193;27;20391;-69
2023/10/04 02:40:27;;;;;;;0.70;0.70;;;15.50;69.70;;;;;;5159614;27;20018;-68
2023/10/04 02:42:57;;;;;;;0.40;0.40;;;15.50;69.80;;;;;;5162102;27;20034;-68
2023/10/04 02:45:24;;;;;;;0.40;0.40;;;15.50;69.80;;;;;;5156803;27;20023;-68
2023/10/04 02:47:52;;;;;;;0.60;0.60;;;15.50;69.80;;;;;;5156383;27;20035;-68
2023/10/04 02:50:19;;;;;;;0.57;0.57;;;15.60;69.70;;;;;;5164166;27;20817;-68
2023/10/04 02:52:50;;;;;;;0.50;0.50;;;15.50;69.60;;;;;;5177188;27;20031;-67
2023/10/04 02:55:17;;;;;;;0.50;0.50;;;15.50;69.60;;;;;;5176798;27;20014;-68
2023/10/04 02:57:50;;;;;;;0.50;0.50;;;15.50;69.50;;;;;;5177083;27;20022;-68
2023/10/04 03:00:19;;;;;;;0.35;0.35;;;15.50;69.60;;;;;;5176945;27;20615;-68
2023/10/04 03:02:46;;;;;;;0.40;0.40;;;15.50;69.50;;;;;;5176918;27;20022;-68
2023/10/04 03:05:14;;;;;;;0.50;0.50;;;15.50;69.50;;;;;;5176507;27;20376;-68
2023/10/04 03:07:41;;;;;;;2.70;1.08;;;15.50;69.40;;;;;;5176835;27;20149;-68
2023/10/04 03:10:10;;;;;;;0.65;0.65;;;15.50;69.40;;;;;;5177058;27;20033;-68
2023/10/04 03:12:37;;;;;;;1.48;0.80;;;15.40;69.40;;;;;;5176773;27;20045;-68
2023/10/04 03:15:02;;;;;;;0.90;0.90;;;15.50;69.30;;;;;;5176490;27;20494;-68
2023/10/04 03:17:28;;;;;;;0.50;0.50;;;15.50;69.50;;;;;;5176699;27;20034;-69
2023/10/04 03:19:53;;;;;;;0.40;0.40;;;15.50;69.70;;;;;;5178481;27;20026;-73
2023/10/04 03:22:22;;;;;;;0.43;0.43;;;15.50;69.70;;;;;;5178372;27;20023;-73
2023/10/04 03:24:50;;;;;;;0.50;0.50;;;15.50;69.70;;;;;;5169039;27;20029;-73
2023/10/04 03:27:16;;;;;;;0.47;0.47;;;15.50;69.80;;;;;;5173052;27;20058;-73
2023/10/04 03:29:43;;;;;;;0.50;0.50;;;15.50;69.80;;;;;;5183643;27;20019;-73
2023/10/04 03:32:09;;;;;;;0.50;0.50;;;15.50;69.90;;;;;;5180634;27;20027;-72
2023/10/04 03:34:35;;;;;;;0.60;0.60;;;15.50;69.80;;;;;;5188982;27;20093;-73
2023/10/04 03:37:08;;;;;;;0.43;0.43;;;15.50;69.90;;;;;;5184746;27;20010;-72
2023/10/04 03:39:37;;;;;;;0.52;0.52;;;15.60;70.00;;;;;;5183521;27;20062;-72
2023/10/04 03:42:04;;;;;;;0.40;0.40;;;15.60;69.90;;;;;;5177378;27;20125;-73
2023/10/04 03:44:29;;;;;;;0.40;0.40;;;15.60;69.90;;;;;;5165131;27;20113;-73
2023/10/04 03:46:56;;;;;;;0.40;0.40;;;15.60;69.90;;;;;;5179043;27;20458;-73
2023/10/04 03:49:22;;;;;;;0.70;0.70;;;15.60;70.00;;;;;;5180829;27;20439;-73
2023/10/04 03:51:49;;;;;;;0.40;0.40;;;15.60;70.00;;;;;;5164647;27;20490;-73
2023/10/04 03:54:15;;;;;;;0.60;0.60;;;15.60;69.90;;;;;;5180711;27;20023;-73
2023/10/04 03:56:41;;;;;;;0.88;0.88;;;15.70;70.00;;;;;;5172833;27;20026;-74
2023/10/04 03:59:08;;;;;;;0.77;0.77;;;15.70;70.10;;;;;;5164962;27;20030;-74
2023/10/04 04:01:34;;;;;;;1.00;1.00;;;15.70;70.00;;;;;;5177614;27;20053;-74
2023/10/04 04:04:03;;;;;;;1.02;1.00;;;15.70;70.10;;;;;;5159412;27;20026;-73
2023/10/04 04:06:29;;;;;;;0.73;0.70;;;15.70;70.10;;;;;;5172935;27;20033;-73
2023/10/04 04:08:56;;;;;;;0.73;0.73;;;15.80;70.10;;;;;;5180322;27;20026;-74
2023/10/04 04:11:22;;;;;;;1.23;1.13;;;15.80;70.00;;;;;;5179679;27;20383;-73
2023/10/04 04:13:48;;;;;;;0.40;0.40;;;15.80;70.10;;;;;;5178811;27;20122;-74
2023/10/04 04:16:17;;;;;;;0.82;0.82;;;15.80;70.10;;;;;;5178063;27;20019;-74
2023/10/04 04:18:44;;;;;;;0.63;0.63;;;15.90;70.20;;;;;;5173105;27;20530;-75
2023/10/04 04:21:10;;;;;;;0.47;0.47;;;15.90;70.20;;;;;;5178242;27;20014;-75
2023/10/04 04:23:36;;;;;;;0.40;0.40;;;15.90;70.20;;;;;;5158154;27;20030;-76
2023/10/04 04:26:05;;;;;;;0.75;0.75;;;15.90;70.10;;;;;;5172705;27;20467;-74
2023/10/04 04:28:34;;;;;;;0.50;0.50;;;16.00;70.10;;;;;;5157213;27;20023;-69
2023/10/04 04:31:00;;;;;;;0.45;0.45;;;15.90;70.10;;;;;;5161430;27;20064;-69
2023/10/04 04:33:28;;;;;;;0.50;0.50;;;16.00;70.00;;;;;;5175286;27;20050;-70
2023/10/04 04:36:00;;;;;;;0.40;0.40;;;16.00;70.00;;;;;;5175503;27;20023;-68
2023/10/04 04:38:28;;;;;;;0.40;0.40;;;16.00;70.00;;;;;;5164595;27;20030;-69
2023/10/04 04:40:56;;;;;;;0.50;0.50;;;16.00;69.90;;;;;;5164295;27;20082;-69
2023/10/04 04:45:51;;;;;;;0.40;0.40;;;15.90;69.70;;;;;;5174766;27;20031;-69
2023/10/04 04:48:19;;;;;;;0.40;0.40;;;16.00;69.80;;;;;;5172963;27;20091;-69
2023/10/04 04:50:45;;;;;;;0.40;0.40;;;16.00;69.90;;;;;;5174528;27;20534;-70
2023/10/04 04:53:17;;;;;;;0.40;0.40;;;16.00;69.90;;;;;;5172581;27;20454;-68
2023/10/04 04:55:42;;;;;;;0.45;0.45;;;15.90;69.80;;;;;;5166892;27;20026;-69
2023/10/04 04:58:08;;;;;;;0.40;0.40;;;16.00;69.80;;;;;;5168701;27;20371;-70
2023/10/04 05:00:34;;;;;;;0.57;0.57;;;15.90;69.60;;;;;;5164796;27;20163;-69
2023/10/04 05:03:04;;;;;;;0.50;0.50;;;15.90;69.50;;;;;;5169900;27;20030;-68
2023/10/04 05:05:31;;;;;;;0.75;0.75;;;15.90;69.40;;;;;;5174787;27;20022;-69
2023/10/04 05:07:57;;;;;;;0.40;0.40;;;15.80;69.20;;;;;;5160152;27;20346;-69
2023/10/04 05:10:25;;;;;;;0.50;0.50;;;15.80;69.00;;;;;;5153405;27;20035;-69
2023/10/04 05:12:52;;;;;;;0.80;0.80;;;15.70;68.90;;;;;;5166930;27;20543;-70
2023/10/04 05:15:33;;;;;;;0.40;0.40;;;15.70;68.90;;;;;;5174084;27;20023;-70
2023/10/04 05:18:11;;;;;;;0.40;0.40;;;15.70;68.80;;;;;;5159626;27;20409;-70
2023/10/04 05:20:38;;;;;;;0.60;0.60;;;15.60;68.90;;;;;;5157000;27;20026;-69
2023/10/04 05:23:04;;;;;;;0.50;0.50;;;15.50;69.00;;;;;;5171251;27;20026;-69
2023/10/04 05:25:30;;;;;;;0.60;0.60;;;15.50;69.10;;;;;;5173909;27;20071;-69
2023/10/04 05:28:14;;;;;;;0.47;0.47;;;15.50;69.00;;;;;;5173400;27;20515;-69
2023/10/04 05:30:42;;;;;;;0.70;0.70;;;15.50;69.10;;;;;;5164938;27;20049;-70
2023/10/04 05:33:08;;;;;;;0.45;0.45;;;15.40;69.10;;;;;;5171693;27;20029;-71
2023/10/04 05:35:35;;;;;;;0.52;0.52;;;15.40;69.10;;;;;;5174336;27;20553;-69
2023/10/04 05:38:08;;;;;;;0.65;0.65;;;15.40;69.10;;;;;;5160059;27;20023;-69
2023/10/04 05:40:38;;;;;;;0.50;0.50;;;15.40;69.10;;;;;;5157521;27;20467;-69
2023/10/04 05:43:04;;;;;;;0.50;0.50;;;15.40;69.00;;;;;;5157337;27;20113;-69
2023/10/04 05:45:31;;;;;;;1.17;0.77;;;15.40;69.10;;;;;;5153128;27;20562;-69
2023/10/04 05:47:57;;;;;;;0.40;0.40;;;15.30;69.00;;;;;;5152480;27;20331;-69
2023/10/04 05:50:23;;;;;;;0.60;0.60;;;15.30;68.90;;;;;;5161760;27;20522;-68
2023/10/04 05:52:49;;;;;;;0.50;0.50;;;15.30;69.10;;;;;;5173580;27;20102;-68
2023/10/04 05:55:18;;;;;;;0.60;0.60;;;15.30;69.10;;;;;;5159830;27;20031;-68
2023/10/04 05:57:45;;;;;;;0.40;0.40;;;15.30;69.10;;;;;;5152093;27;20066;-69
2023/10/04 06:00:27;;;;;;;0.50;0.50;;;15.30;69.20;;;;;;5161900;27;20391;-69
2023/10/04 06:03:00;;;;;;;0.50;0.50;;;15.30;69.30;;;;;;5164166;27;20030;-69
2023/10/04 06:05:27;;;;;;;0.35;0.35;;;15.30;69.30;;;;;;5159268;27;20034;-68
2023/10/04 06:07:54;;;;;;;0.50;0.50;;;15.30;69.30;;;;;;5164523;27;20053;-69
2023/10/04 06:10:21;;;;;;;0.43;0.43;;;15.40;69.50;;;;;;5162698;27;20069;-68
2023/10/04 06:12:47;;;;;;;0.70;0.70;;;15.40;69.60;;;;;;5168388;27;20481;-69
2023/10/04 06:15:17;;;;;;;0.40;0.40;;;15.50;69.70;;;;;;5173383;27;20479;-69
2023/10/04 06:17:50;;;;;;;2.60;1.37;;;15.60;69.90;;;;;;5161311;27;20050;-68
2023/10/04 06:23:09;;;;;;;0.50;0.50;;;15.80;70.50;;;;;;5169062;27;20044;-68
2023/10/04 06:25:48;;;;;;;1.25;1.13;;;16.00;71.00;;;;;;5171641;27;20026;-69
2023/10/04 06:28:14;;;;;;;1.08;1.00;;;16.30;71.20;;;;;;5171725;27;20040;-69
2023/10/04 06:30:42;;;;;;;0.50;0.50;;;16.50;71.10;;;;;;5152205;27;20034;-69
2023/10/04 06:33:10;;;;;;;0.90;0.90;;;16.70;71.10;;;;;;5145491;27;20026;-69
2023/10/04 06:35:37;;;;;;;0.52;0.52;;;16.80;71.00;;;;;;5143263;27;20023;-68
2023/10/04 06:38:08;;;;;;;5.28;1.42;;;17.10;71.10;;;;;;5143367;27;20023;-69
2023/10/04 06:40:34;;;;;;;;;;;17.30;71.20;;;;;;5135165;27;20400;-68
2023/10/04 06:43:04;;;;;;;0.40;0.40;;;17.50;71.10;;;;;;5148183;27;19907;-69
2023/10/04 06:45:30;;;;;;;0.77;0.77;;;17.70;71.00;;;;;;5149830;27;20065;-70
2023/10/04 06:47:58;;;;;;;0.45;0.45;;;17.90;71.00;;;;;;5149007;27;20034;-68
2023/10/04 06:50:32;;;;;;;0.70;0.70;;;18.10;71.20;;;;;;5145591;27;20022;-69
2023/10/04 06:52:59;;;;;;;1.02;0.98;;;18.30;71.20;;;;;;5131143;27;20023;-68
2023/10/04 06:55:25;;;;;;;0.50;0.50;;;18.50;71.30;;;;;;5149186;27;20027;-68
2023/10/04 06:57:51;;;;;;;0.88;0.88;;;18.70;71.40;;;;;;5147015;27;20029;-68
2023/10/04 07:00:22;;;;;;;2.65;1.05;;;19.00;71.50;;;;;;5151822;27;20503;-68
2023/10/04 07:02:58;;;;;;;0.85;0.85;;;19.20;71.60;;;;;;5138136;27;20034;-68
2023/10/04 07:05:30;;;;;;;0.55;0.55;;;19.40;71.90;;;;;;5152391;27;20479;-68
2023/10/04 07:07:59;;;;;;;0.40;0.40;;;19.60;71.60;;;;;;5152619;27;20034;-69
2023/10/04 07:10:26;;;;;;;0.60;0.60;;;19.90;71.80;;;;;;5154651;27;20034;-70
2023/10/04 07:12:54;;;;;;;0.60;0.60;;;20.10;72.10;;;;;;5145654;27;20060;-69
2023/10/04 07:15:20;;;;;;;1.00;0.95;;;20.30;71.80;;;;;;5153722;27;20038;-68
2023/10/04 07:17:47;;;;;;;1.65;0.85;;;20.40;71.10;;;;;;5146408;27;20176;-68
2023/10/04 07:20:14;;;;;;;0.80;0.80;;;20.60;71.00;;;;;;5155539;27;20034;-68
2023/10/04 07:22:45;;;;;;;0.43;0.43;;;20.60;70.60;;;;;;5143890;27;20026;-68
2023/10/04 07:25:12;;;;;;;0.60;0.60;;;20.60;70.20;;;;;;5154527;27;20391;-68
2023/10/04 07:27:42;;;;;;;2.30;1.25;;;20.60;69.90;;;;;;5151153;27;20075;-68
2023/10/04 07:30:12;;;;;;;0.70;0.70;;;20.50;70.10;;;;;;5134441;27;20027;-68
2023/10/04 07:32:42;;;;;;;0.77;0.77;;;20.50;70.30;;;;;;5144330;27;20027;-68
2023/10/04 07:35:13;;;;;;;0.65;0.65;;;20.60;70.10;;;;;;5144211;27;20156;-68
2023/10/04 07:37:40;;;;;;;0.75;0.75;;;20.70;70.90;;;;;;5143760;27;20584;-69
2023/10/04 07:40:09;;;;;;;0.90;0.88;;;20.70;71.40;;;;;;5150902;27;20091;-68
2023/10/04 07:42:38;;;;;;;0.40;0.40;;;21.00;72.00;;;;;;5152284;27;20486;-69
2023/10/04 07:45:08;;;;;;;0.50;0.50;;;21.30;73.00;;;;;;5134476;27;20086;-68
2023/10/04 07:47:38;;;;;;;0.43;0.43;;;21.50;72.20;;;;;;5144320;27;20035;-68
2023/10/04 07:50:09;;;;;;;0.60;0.60;;;21.70;71.70;;;;;;5133885;27;20027;-68
2023/10/04 07:52:40;;;;;;;1.23;0.85;;;21.70;71.00;;;;;;5136792;27;20084;-69
2023/10/04 07:55:08;;;;;;;0.50;0.50;;;21.70;70.70;;;;;;5132209;27;20019;-67
2023/10/04 07:57:36;;;;;;;0.55;0.55;;;21.70;71.20;;;;;;5145813;27;20034;-67
2023/10/04 08:00:06;;;;;;;0.50;0.50;;;21.70;70.00;;;;;;5170363;27;20019;-72
2023/10/04 08:02:31;;;;;;;0.52;0.52;;;21.70;70.60;;;;;;5169305;27;20095;-72
2023/10/04 08:04:57;;;;;;;0.80;0.80;;;21.80;70.60;;;;;;5167197;27;20039;-73
2023/10/04 08:07:22;;;;;;;0.63;0.63;;;22.00;72.80;;;;;;5168993;27;20035;-73
2023/10/04 08:09:48;;;;;;;0.50;0.50;;;22.30;71.90;;;;;;5161698;27;20056;-72
2023/10/04 08:12:14;;;;;;;0.40;0.40;;;22.40;71.60;;;;;;5149209;27;20023;-73
2023/10/04 08:14:40;;;;;;;0.95;0.88;;;22.70;73.90;;;;;;5157985;27;20067;-72
2023/10/04 08:17:09;;;;;;;0.60;0.60;;;23.20;74.80;;;;;;5147693;27;20055;-72
2023/10/04 08:19:34;;;;;;;0.57;0.57;;;23.60;72.50;;;;;;5151459;27;20058;-73
2023/10/04 08:22:00;;;;;;;0.57;0.57;;;23.70;72.60;;;;;;5151315;27;20536;-72
2023/10/04 08:24:25;;;;;;;1.20;1.05;;;24.00;71.50;;;;;;5153667;27;20038;-73
2023/10/04 08:26:51;;;;;;;0.73;0.73;;;24.00;70.90;;;;;;5156872;27;20321;-72
2023/10/04 08:29:17;;;;;;;1.00;0.88;;;24.20;71.00;;;;;;5148540;27;20059;-72
2023/10/04 08:31:42;;;;;;;0.60;0.60;;;24.30;71.90;;;;;;5154250;27;20460;-72
2023/10/04 08:34:08;;;;;;;0.60;0.60;;;24.60;72.30;;;;;;5150040;27;20031;-72
2023/10/04 08:36:33;;;;;;;0.55;0.55;;;24.80;72.30;;;;;;5143979;27;20028;-72
2023/10/04 08:39:10;;;;;;;0.50;0.50;;;25.00;71.80;;;;;;5151200;27;20467;-70
2023/10/04 08:41:36;;;;;;;1.27;1.15;;;25.20;71.70;;;;;;5150701;27;20023;-69
2023/10/04 08:44:05;;;;;;;0.55;0.55;;;25.40;71.90;;;;;;5143618;27;20078;-67
2023/10/04 08:46:32;;;;;;;0.50;0.50;;;25.60;71.40;;;;;;5133414;27;20024;-68
2023/10/04 08:49:00;;;;;;;1.63;0.82;;;25.70;71.20;;;;;;5140422;27;20464;-68
2023/10/04 08:51:50;;;;;;;0.70;0.70;;;25.80;69.80;;;;;;5152607;27;20026;-68
2023/10/04 08:54:24;;;;;;;0.63;0.63;;;25.70;69.30;;;;;;5143881;27;20034;-67
2023/10/04 08:57:14;;;;;;;0.50;0.50;;;25.80;68.70;;;;;;5153616;27;20017;-68
2023/10/04 08:59:41;;;;;;;0.43;0.43;;;25.80;69.30;;;;;;5152758;27;20476;-68
2023/10/04 09:02:10;;;;;;;0.50;0.50;;;26.00;70.50;;;;;;5153299;27;20079;-68
2023/10/04 09:04:36;;;;;;;1.73;0.82;;;26.20;68.60;;;;;;5148198;27;20037;-68
2023/10/04 09:07:02;;;;;;;0.50;0.50;;;26.30;70.40;;;;;;5147297;27;20030;-67
2023/10/04 09:09:32;;;;;;;0.65;0.65;;;26.60;69.50;;;;;;5135388;27;20099;-68
2023/10/04 09:11:58;;;;;;;0.50;0.50;;;26.60;67.20;;;;;;5152955;27;20491;-68
2023/10/04 09:14:25;;;;;;;0.50;0.50;;;26.60;66.70;;;;;;5143586;27;20257;-68
2023/10/04 09:17:07;;;;;;;0.52;0.52;;;26.50;68.10;;;;;;5147234;27;20053;-67
2023/10/04 09:19:33;;;;;;;0.30;0.30;;;26.60;67.60;;;;;;5150554;27;20023;-69
2023/10/04 09:22:07;;;;;;;0.50;0.50;;;26.60;66.70;;;;;;5150745;27;20014;-69
2023/10/04 09:24:37;;;;;;;0.50;0.50;;;26.50;66.50;;;;;;5140397;27;20098;-69
2023/10/04 09:27:03;;;;;;;;;;;26.30;66.10;;;;;;5148805;27;20442;-69
2023/10/04 09:29:33;;;;;;;0.63;0.63;;;26.30;65.70;;;;;;5160793;27;20072;-72
2023/10/04 09:31:59;;;;;;;0.70;0.70;;;26.30;68.10;;;;;;5151728;27;20030;-72
2023/10/04 09:34:26;;;;;;;0.50;0.50;;;26.50;66.20;;;;;;5159138;27;20034;-68
2023/10/04 09:36:52;;;;;;;0.50;0.50;;;26.60;67.20;;;;;;5149305;27;20071;-69
2023/10/04 09:39:24;;;;;;;0.80;0.55;;;26.60;63.70;;;;;;5146085;27;20042;-69
2023/10/04 09:41:51;;;;;;;0.98;0.88;;;26.50;65.90;;;;;;5153031;27;20025;-72
2023/10/04 09:44:25;;;;;;;0.73;0.73;;;26.80;65.00;;;;;;5153965;27;20053;-72
2023/10/04 09:46:56;;;;;;;0.40;0.40;;;27.00;66.70;;;;;;5142034;27;20027;-71
2023/10/04 09:49:31;;;;;;;0.60;0.60;;;27.10;65.40;;;;;;5141267;27;20491;-71
2023/10/04 09:52:00;;;;;;;0.40;0.40;;;27.10;62.60;;;;;;5157282;27;20101;-71
2023/10/04 09:54:27;;;;;;;0.40;0.40;;;27.00;62.60;;;;;;5149199;27;20031;-71
2023/10/04 09:56:54;;;;;;;0.57;0.57;;;26.90;62.90;;;;;;5136268;27;20023;-71
2023/10/04 09:59:21;;;;;;;0.60;0.60;;;27.00;63.30;;;;;;5145152;27;20030;-71
2023/10/04 10:01:55;;;;;;;1.17;0.75;;;27.20;63.90;;;;;;5151573;27;20050;-71
2023/10/04 10:04:35;;;;;;;0.45;0.45;;;27.40;63.10;;;;;;5145512;27;20039;-71
2023/10/04 10:07:25;;;;;;;1.55;1.20;;;27.70;63.20;;;;;;5151093;27;20030;-71
2023/10/04 10:10:04;;;;;;;0.40;0.40;;;27.80;57.40;;;;;;5137221;27;20046;-71
2023/10/04 10:12:31;;;;;;;0.73;0.73;;;27.80;59.00;;;;;;5134794;27;20023;-71
2023/10/04 10:15:02;;;;;;;0.77;0.75;;;27.80;58.00;;;;;;5145446;27;20023;-71
2023/10/04 10:17:30;;;;;;;0.60;0.60;;;27.90;59.30;;;;;;5143858;27;20042;-71
2023/10/04 10:19:56;;;;;;;0.90;0.90;;;28.10;59.20;;;;;;5144875;27;20023;-71
2023/10/04 10:22:21;;;;;;;1.13;0.98;;;28.20;57.30;;;;;;5142554;27;20031;-71
2023/10/04 10:25:16;;;;;;;0.57;0.57;;;28.30;56.00;;;;;;5145191;27;20053;-71
2023/10/04 10:27:43;;;;;;;0.65;0.65;;;28.20;55.10;;;;;;5153886;27;20027;-71
2023/10/04 10:30:09;;;;;;;0.60;0.60;;;28.30;55.60;;;;;;5154473;27;20045;-71
2023/10/04 10:32:35;;;;;;;0.43;0.43;;;28.30;54.80;;;;;;5149973;27;20134;-71
2023/10/04 10:35:05;;;;;;;1.13;0.63;;;28.40;56.00;;;;;;5140693;27;20473;-71
2023/10/04 10:37:38;;;;;;;0.50;0.50;;;28.60;56.10;;;;;;5136072;27;20364;-71
2023/10/04 10:40:09;;;;;;;0.77;0.77;;;28.80;55.00;;;;;;5143983;27;20042;-71
2023/10/04 10:43:07;;;;;;;3.10;1.48;;;28.70;51.60;;;;;;5139826;27;20030;-70
2023/10/04 10:45:33;;;;;;;0.70;0.70;;;28.70;52.90;;;;;;5142773;27;20027;-70
2023/10/04 10:48:00;;;;;;;0.75;0.75;;;28.80;52.30;;;;;;5138141;27;20476;-70
2023/10/04 10:50:37;;;;;;;0.57;0.55;;;28.80;50.70;;;;;;5146849;27;20791;-70
2023/10/04 10:53:05;;;;;;;0.43;0.43;;;28.90;50.70;;;;;;5145815;27;20046;-70
2023/10/04 10:55:33;;;;;;;0.50;0.50;;;29.10;50.40;;;;;;5139638;27;20475;-70
2023/10/04 10:57:59;;;;;;;0.60;0.60;;;29.20;49.00;;;;;;5142988;27;20025;-70
2023/10/04 11:00:31;;;;;;;0.50;0.50;;;29.20;48.50;;;;;;5156132;27;20027;-70
2023/10/04 11:02:57;;;;;;;2.35;1.10;;;29.10;47.60;;;;;;5149977;27;20035;-70
2023/10/04 11:05:23;;;;;;;0.93;0.93;;;29.10;46.60;;;;;;5141507;27;20023;-70
2023/10/04 11:07:50;;;;;;;2.05;0.90;;;29.10;45.20;;;;;;5147350;27;20090;-70
2023/10/04 11:10:17;;;;;;;0.70;0.70;;;29.00;44.90;;;;;;5156614;27;20034;-70
2023/10/04 11:12:55;;;;;;;1.55;0.82;;;28.90;45.10;;;;;;5155302;27;21205;-70
2023/10/04 11:15:23;;;;;;;0.68;0.63;;;28.80;43.70;;;;;;5154795;27;20375;-70
2023/10/04 11:17:50;;;;;;;0.50;0.50;;;28.70;44.00;;;;;;5143955;27;20494;-70
2023/10/04 11:20:17;;;;;;;0.65;0.65;;;28.60;42.50;;;;;;5147348;27;20031;-70
2023/10/04 11:22:44;;;;;;;0.60;0.60;;;28.40;40.80;;;;;;5155406;27;20031;-70
2023/10/04 11:25:11;;;;;;;0.60;0.60;;;28.30;40.10;;;;;;5141858;27;20031;-70
2023/10/04 11:27:40;;;;;;;0.88;0.88;;;28.00;41.40;;;;;;5157098;27;20467;-69
2023/10/04 11:30:08;;;;;;;1.63;0.70;;;28.00;41.90;;;;;;5154391;27;20039;-69
2023/10/04 11:32:34;;;;;;;1.15;0.90;;;28.00;42.20;;;;;;5141275;27;20486;-69
2023/10/04 11:35:08;;;;;;;0.57;0.57;;;28.10;42.40;;;;;;5151009;27;20030;-69
2023/10/04 11:37:43;;;;;;;0.40;0.40;;;28.10;42.00;;;;;;5146025;27;20076;-69
2023/10/04 11:40:11;;;;;;;0.68;0.68;;;28.00;40.60;;;;;;5145211;27;20033;-69
2023/10/04 11:42:38;;;;;;;0.40;0.40;;;28.00;41.70;;;;;;5144225;27;20031;-69
2023/10/04 11:45:19;;;;;;;0.80;0.77;;;28.00;42.10;;;;;;5150021;27;20095;-69
2023/10/04 11:47:57;;;;;;;0.57;0.57;;;28.00;42.40;;;;;;5142068;27;20122;-69
2023/10/04 11:50:23;;;;;;;0.50;0.50;;;28.00;41.30;;;;;;5146597;27;20037;-69
2023/10/04 11:52:52;;;;;;;1.10;0.85;;;27.90;39.90;;;;;;5149698;27;20415;-69
2023/10/04 11:55:25;;;;;;;0.50;0.50;;;27.70;39.40;;;;;;5148285;27;20031;-69
2023/10/04 11:57:51;;;;;;;0.50;0.50;;;27.50;39.20;;;;;;5150193;27;20496;-69
2023/10/04 12:00:23;;;;;;;0.52;0.52;;;27.30;40.30;;;;;;5149433;27;20039;-69
2023/10/04 12:02:49;;;;;;;0.57;0.57;;;27.20;40.60;;;;;;5146321;27;20657;-68
2023/10/04 12:05:15;;;;;;;0.45;0.45;;;27.20;40.90;;;;;;5145799;27;20134;-69
2023/10/04 12:07:41;;;;;;;3.67;0.95;;;27.20;41.40;;;;;;5148146;27;20101;-69
2023/10/04 12:10:09;;;;;;;0.50;0.50;;;27.10;41.30;;;;;;5151357;27;20114;-69
2023/10/04 12:12:35;;;;;;;0.65;0.65;;;27.10;40.90;;;;;;5143923;27;20015;-69
2023/10/04 12:15:00;;;;;;;0.85;0.85;;;26.90;41.00;;;;;;5149548;27;20494;-69
2023/10/04 12:17:26;;;;;;;0.80;0.80;;;26.80;41.50;;;;;;5145809;27;20026;-68
2023/10/04 12:19:51;;;;;;;0.77;0.77;;;26.80;41.20;;;;;;5145196;27;20036;-68
2023/10/04 12:22:19;;;;;;;0.50;0.50;;;26.80;41.80;;;;;;5134594;27;20055;-68
2023/10/04 12:24:45;;;;;;;0.40;0.40;;;26.80;42.20;;;;;;5143134;27;20058;-69
2023/10/04 12:27:16;;;;;;;0.50;0.50;;;26.70;41.10;;;;;;5155057;27;20113;-69
2023/10/04 12:29:41;;;;;;;0.47;0.47;;;26.60;40.60;;;;;;5147394;27;20118;-68
2023/10/04 12:32:07;;;;;;;1.17;0.95;;;26.40;40.70;;;;;;5151646;27;20105;-68
2023/10/04 12:34:33;;;;;;;0.70;0.70;;;26.30;40.80;;;;;;5144104;27;20027;-69
2023/10/04 12:37:00;;;;;;;1.95;1.35;;;26.20;41.00;;;;;;5141043;27;20345;-69
2023/10/04 12:39:25;;;;;;;0.82;0.82;;;26.20;41.50;;;;;;5154565;27;20051;-69
2023/10/04 12:41:52;;;;;;;0.40;0.40;;;26.20;42.00;;;;;;5154883;27;20376;-69
2023/10/04 12:44:18;;;;;;;0.50;0.50;;;26.20;41.30;;;;;;5147826;27;20027;-69
2023/10/04 12:46:50;;;;;;;0.57;0.57;;;26.10;41.50;;;;;;5155191;27;20026;-68
2023/10/04 12:49:18;;;;;;;0.70;0.70;;;26.10;41.30;;;;;;5154712;27;20038;-68
2023/10/04 12:51:45;;;;;;;1.30;0.93;;;26.20;41.00;;;;;;5152273;27;20025;-68
2023/10/04 12:54:11;;;;;;;1.63;1.15;;;26.00;41.20;;;;;;5150189;27;21185;-68
2023/10/04 12:56:38;;;;;;;0.50;0.50;;;26.10;40.90;;;;;;5153953;27;20050;-69
2023/10/04 12:59:05;;;;;;;0.60;0.60;;;26.10;41.40;;;;;;5155170;27;20018;-69